Time;durP1;ratioP1;P1;durP2;ratioP2;P2;SDS_P1;SDS_P2;PMS_P1;PMS_P2;Temp;Humidity;BMP_temperature;BMP_pressure;BME280_temperature;BME280_humidity;BME280_pressure;Samples;Min_cycle;Max_cycle;Signal;HPM_P1;HPM_P2
2022/10/16 00:02:19;;;;;;;5.00;3.00;;;14.30;86.20;;;;;;5115212;28;20120;-68
2022/10/16 00:04:45;;;;;;;5.40;2.80;;;14.30;86.30;;;;;;5097601;28;20058;-68
2022/10/16 00:07:10;;;;;;;6.15;3.05;;;14.30;86.40;;;;;;5097549;28;20036;-69
2022/10/16 00:09:36;;;;;;;8.40;3.30;;;14.30;86.90;;;;;;5097321;28;20039;-68
2022/10/16 00:12:03;;;;;;;5.80;2.63;;;14.20;87.20;;;;;;5115194;28;20028;-68
2022/10/16 00:14:29;;;;;;;4.72;2.80;;;14.20;87.70;;;;;;5115106;28;20122;-68
2022/10/16 00:16:54;;;;;;;4.57;2.80;;;14.20;87.70;;;;;;5097308;28;20024;-69
2022/10/16 00:19:20;;;;;;;4.32;3.00;;;14.30;87.60;;;;;;5115050;28;20037;-69
2022/10/16 00:21:46;;;;;;;7.53;3.50;;;14.20;87.90;;;;;;5115007;28;20028;-68
2022/10/16 00:24:11;;;;;;;4.60;3.00;;;14.30;87.90;;;;;;5114948;28;20051;-68
2022/10/16 00:26:38;;;;;;;6.32;3.05;;;14.20;88.30;;;;;;5114926;28;20028;-68
2022/10/16 00:29:05;;;;;;;5.15;2.90;;;14.30;88.30;;;;;;5114801;28;20020;-68
2022/10/16 00:31:31;;;;;;;4.90;2.90;;;14.30;88.10;;;;;;5114819;28;20020;-68
2022/10/16 00:33:57;;;;;;;4.47;2.65;;;14.30;87.90;;;;;;5096789;28;20019;-68
2022/10/16 00:36:25;;;;;;;5.95;2.75;;;14.20;88.00;;;;;;5114659;28;20360;-68
2022/10/16 00:38:55;;;;;;;6.35;3.00;;;14.20;88.10;;;;;;5114699;28;20076;-68
2022/10/16 00:41:23;;;;;;;6.60;3.20;;;14.30;88.20;;;;;;5096685;28;20020;-68
2022/10/16 00:43:50;;;;;;;4.07;2.90;;;14.30;88.00;;;;;;5114604;28;20597;-68
2022/10/16 00:46:22;;;;;;;6.38;2.65;;;14.30;87.90;;;;;;5114537;28;20042;-68
2022/10/16 00:49:08;;;;;;;5.35;2.53;;;14.20;87.80;;;;;;5114707;28;20015;-69
2022/10/16 00:52:02;;;;;;;6.78;2.75;;;14.30;87.90;;;;;;5114507;28;20087;-69
2022/10/16 00:54:31;;;;;;;3.60;2.30;;;14.20;87.80;;;;;;5111204;28;20037;-68
2022/10/16 00:57:02;;;;;;;6.43;2.83;;;14.30;87.90;;;;;;5096074;28;20028;-68
2022/10/16 00:59:37;;;;;;;4.43;2.30;;;14.30;87.90;;;;;;5114347;28;20017;-68
2022/10/16 01:02:05;;;;;;;7.95;2.10;;;14.30;87.60;;;;;;5096089;28;20044;-69
2022/10/16 01:04:36;;;;;;;3.60;2.17;;;14.30;87.50;;;;;;5113979;28;20108;-69
2022/10/16 01:07:24;;;;;;;3.00;2.05;;;14.30;87.50;;;;;;5114235;28;20028;-68
2022/10/16 01:10:02;;;;;;;2.83;2.03;;;14.30;87.70;;;;;;5114180;28;20032;-69
2022/10/16 01:12:40;;;;;;;5.68;2.20;;;14.30;87.70;;;;;;5096235;28;20100;-69
2022/10/16 01:15:25;;;;;;;4.22;2.35;;;14.30;87.80;;;;;;5114010;28;20094;-68
2022/10/16 01:18:12;;;;;;;3.58;2.15;;;14.30;87.80;;;;;;5114030;28;20017;-69
2022/10/16 01:20:45;;;;;;;4.80;2.25;;;14.30;87.70;;;;;;5114143;28;20021;-68
2022/10/16 01:23:32;;;;;;;5.57;2.58;;;14.30;87.60;;;;;;5114081;28;20016;-69
2022/10/16 01:26:35;;;;;;;4.60;2.15;;;14.30;87.60;;;;;;5096186;28;20028;-68
2022/10/16 01:29:20;;;;;;;3.67;1.90;;;14.30;87.50;;;;;;5113785;28;20031;-69
2022/10/16 01:31:50;;;;;;;3.42;2.30;;;14.30;87.90;;;;;;5095942;28;20079;-69
2022/10/16 01:34:24;;;;;;;3.08;1.98;;;14.20;88.10;;;;;;5113828;28;20027;-69
2022/10/16 01:37:02;;;;;;;7.00;2.25;;;14.20;88.10;;;;;;5113753;28;20023;-69
2022/10/16 01:39:31;;;;;;;3.60;2.25;;;14.20;88.20;;;;;;5113745;28;20020;-69
2022/10/16 01:42:09;;;;;;;3.72;2.50;;;14.20;88.30;;;;;;5113727;28;20023;-68
2022/10/16 01:44:37;;;;;;;3.58;2.17;;;14.30;88.40;;;;;;5113657;28;20020;-69
2022/10/16 01:47:05;;;;;;;4.00;2.00;;;14.30;88.60;;;;;;5113619;28;20022;-69
2022/10/16 01:49:35;;;;;;;6.00;2.05;;;14.30;88.60;;;;;;5113558;28;20046;-69
2022/10/16 01:52:05;;;;;;;3.03;2.00;;;14.40;88.40;;;;;;5113525;28;20032;-68
2022/10/16 01:54:34;;;;;;;5.30;2.10;;;14.40;88.30;;;;;;5113416;28;20020;-69
2022/10/16 01:57:01;;;;;;;7.20;2.22;;;14.40;88.40;;;;;;5113569;28;20024;-69
2022/10/16 01:59:31;;;;;;;5.30;2.35;;;14.30;88.50;;;;;;5113489;28;20020;-69
2022/10/16 02:02:01;;;;;;;4.00;2.17;;;14.40;88.30;;;;;;5113206;28;20032;-69
2022/10/16 02:04:40;;;;;;;5.57;2.30;;;14.30;88.70;;;;;;5113527;28;20390;-69
2022/10/16 02:07:07;;;;;;;2.97;2.25;;;14.30;88.80;;;;;;5113474;28;20028;-69
2022/10/16 02:09:34;;;;;;;3.78;2.10;;;14.30;88.60;;;;;;5114295;28;20024;-69
2022/10/16 02:12:05;;;;;;;3.28;1.90;;;14.30;88.80;;;;;;5099603;28;20057;-69
2022/10/16 02:14:32;;;;;;;3.08;1.90;;;14.30;89.00;;;;;;5099480;28;20035;-68
2022/10/16 02:16:57;;;;;;;4.25;2.10;;;14.30;88.90;;;;;;5117462;28;20020;-69
2022/10/16 02:19:23;;;;;;;3.10;1.80;;;14.30;89.00;;;;;;5117372;28;20077;-69
2022/10/16 02:21:59;;;;;;;4.25;1.90;;;14.40;89.00;;;;;;5117375;28;20031;-69
2022/10/16 02:24:56;;;;;;;4.30;2.05;;;14.30;89.00;;;;;;5117468;28;20027;-69
2022/10/16 02:27:55;;;;;;;2.67;1.83;;;14.30;89.10;;;;;;5117231;28;20020;-69
2022/10/16 02:30:25;;;;;;;3.20;2.00;;;14.30;89.10;;;;;;5117158;28;20016;-69
2022/10/16 02:32:52;;;;;;;4.68;2.30;;;14.30;88.90;;;;;;5117171;28;20016;-68
2022/10/16 02:35:20;;;;;;;3.53;2.10;;;14.30;89.60;;;;;;5117034;28;20059;-69
2022/10/16 02:37:47;;;;;;;2.88;1.83;;;14.30;88.80;;;;;;5117060;28;20031;-69
2022/10/16 02:40:14;;;;;;;2.53;1.90;;;14.30;88.60;;;;;;5099099;28;20027;-68
2022/10/16 02:42:40;;;;;;;3.35;2.00;;;14.30;88.60;;;;;;5117092;28;20034;-69
2022/10/16 02:45:07;;;;;;;4.53;2.05;;;14.20;88.80;;;;;;5116872;28;20028;-69
2022/10/16 02:47:33;;;;;;;3.78;2.00;;;14.20;88.50;;;;;;5116826;28;20043;-69
2022/10/16 02:49:59;;;;;;;3.08;1.75;;;14.20;88.50;;;;;;5116815;28;20089;-69
2022/10/16 02:52:24;;;;;;;5.20;1.88;;;14.20;88.40;;;;;;5116775;28;20020;-69
2022/10/16 02:54:50;;;;;;;3.80;1.95;;;14.20;88.30;;;;;;5081922;28;20028;-69
2022/10/16 02:57:15;;;;;;;4.45;1.80;;;14.30;87.80;;;;;;5116701;28;20028;-69
2022/10/16 02:59:41;;;;;;;3.60;1.90;;;14.20;88.10;;;;;;5098953;28;20471;-69
2022/10/16 03:02:07;;;;;;;3.60;2.08;;;14.20;88.10;;;;;;5098536;28;20050;-69
2022/10/16 03:04:33;;;;;;;2.15;1.55;;;14.20;88.20;;;;;;5116537;28;20539;-69
2022/10/16 03:06:58;;;;;;;4.63;1.92;;;14.10;88.40;;;;;;5116509;28;20032;-69
2022/10/16 03:09:24;;;;;;;3.47;1.90;;;14.20;88.40;;;;;;5116452;28;20020;-69
2022/10/16 03:11:49;;;;;;;4.80;2.10;;;14.20;88.20;;;;;;5098564;28;20517;-69
2022/10/16 03:14:15;;;;;;;3.28;2.00;;;14.20;88.40;;;;;;5116258;28;20092;-69
2022/10/16 03:16:41;;;;;;;3.03;1.80;;;14.10;88.20;;;;;;5116339;28;20080;-69
2022/10/16 03:19:07;;;;;;;3.33;2.00;;;14.20;87.90;;;;;;5098329;28;20035;-69
2022/10/16 03:21:32;;;;;;;3.60;1.80;;;14.10;88.00;;;;;;5115768;28;20045;-69
2022/10/16 03:23:58;;;;;;;3.85;1.60;;;14.20;87.90;;;;;;5116176;28;20487;-69
2022/10/16 03:26:24;;;;;;;2.17;1.63;;;14.10;88.00;;;;;;5116151;28;20036;-69
2022/10/16 03:28:49;;;;;;;5.65;1.83;;;14.00;88.20;;;;;;5081283;28;20024;-69
2022/10/16 03:31:15;;;;;;;2.33;1.60;;;14.00;88.40;;;;;;5098054;28;20036;-69
2022/10/16 03:33:40;;;;;;;5.18;1.90;;;14.00;88.70;;;;;;5116098;28;20036;-69
2022/10/16 03:36:06;;;;;;;3.00;1.75;;;14.00;88.80;;;;;;5098069;28;20054;-69
2022/10/16 03:38:32;;;;;;;2.90;1.73;;;14.00;88.40;;;;;;5098316;28;20044;-69
2022/10/16 03:40:57;;;;;;;3.65;1.95;;;14.00;88.60;;;;;;5115853;28;20024;-69
2022/10/16 03:43:24;;;;;;;4.07;2.03;;;14.00;88.70;;;;;;5115797;28;20107;-69
2022/10/16 03:45:51;;;;;;;3.47;1.75;;;14.00;88.90;;;;;;5115801;28;20039;-69
2022/10/16 03:48:17;;;;;;;4.95;2.30;;;14.00;89.00;;;;;;5097786;28;20125;-69
2022/10/16 03:50:43;;;;;;;3.30;1.80;;;14.00;88.70;;;;;;5115796;28;20028;-69
2022/10/16 03:53:09;;;;;;;3.40;1.70;;;14.00;88.80;;;;;;5097884;28;20028;-69
2022/10/16 03:55:35;;;;;;;1.75;1.40;;;14.00;88.80;;;;;;5097630;28;20028;-69
2022/10/16 03:58:00;;;;;;;4.45;1.95;;;13.90;88.80;;;;;;5081036;28;20024;-69
2022/10/16 04:00:26;;;;;;;3.97;1.77;;;14.00;88.70;;;;;;5097542;28;20406;-69
2022/10/16 04:02:52;;;;;;;4.13;2.05;;;13.90;88.70;;;;;;5115610;28;20108;-69
2022/10/16 04:05:18;;;;;;;5.22;1.80;;;13.90;88.60;;;;;;5115373;28;20020;-69
2022/10/16 04:07:43;;;;;;;2.35;1.58;;;14.00;88.60;;;;;;5115331;28;20048;-69
2022/10/16 04:10:09;;;;;;;3.17;1.70;;;13.90;88.60;;;;;;5115295;28;20057;-69
2022/10/16 04:12:34;;;;;;;3.08;1.80;;;13.90;88.70;;;;;;5097259;28;20032;-69
2022/10/16 04:15:00;;;;;;;3.05;1.52;;;13.90;89.10;;;;;;5115112;28;20036;-69
2022/10/16 04:17:26;;;;;;;2.80;1.55;;;13.80;90.10;;;;;;5097333;28;20035;-69
2022/10/16 04:19:51;;;;;;;3.22;1.42;;;13.80;89.50;;;;;;5097297;28;20024;-69
2022/10/16 04:22:17;;;;;;;3.05;1.85;;;13.80;89.60;;;;;;5097222;28;20021;-69
2022/10/16 04:24:42;;;;;;;3.88;1.80;;;13.80;89.60;;;;;;5097161;28;20425;-69
2022/10/16 04:27:08;;;;;;;3.50;1.88;;;13.80;89.80;;;;;;5097106;28;20036;-69
2022/10/16 04:29:33;;;;;;;2.17;1.67;;;13.80;89.90;;;;;;5114829;28;20035;-69
2022/10/16 04:31:59;;;;;;;4.28;1.60;;;13.80;89.90;;;;;;5114089;28;20111;-69
2022/10/16 04:34:25;;;;;;;2.58;1.38;;;13.80;89.80;;;;;;5096859;28;20021;-69
2022/10/16 04:36:50;;;;;;;3.28;1.90;;;13.80;89.90;;;;;;5096897;28;20048;-69
2022/10/16 04:39:16;;;;;;;2.35;1.52;;;13.90;89.80;;;;;;5114695;28;20028;-68
2022/10/16 04:41:42;;;;;;;2.53;1.27;;;13.90;89.80;;;;;;5114656;28;20025;-69
2022/10/16 04:44:08;;;;;;;2.53;1.50;;;13.90;89.70;;;;;;5096826;28;20091;-69
2022/10/16 04:46:33;;;;;;;1.90;1.52;;;13.80;89.90;;;;;;5114574;28;20055;-69
2022/10/16 04:48:59;;;;;;;2.22;1.60;;;13.80;90.00;;;;;;5114527;28;20043;-68
2022/10/16 04:51:25;;;;;;;2.28;1.40;;;13.80;90.00;;;;;;5114624;28;20028;-69
2022/10/16 04:53:51;;;;;;;4.10;1.80;;;13.90;89.90;;;;;;5096724;28;20020;-69
2022/10/16 04:56:17;;;;;;;2.50;1.50;;;13.90;89.90;;;;;;5114323;28;20364;-69
2022/10/16 04:58:42;;;;;;;3.28;1.70;;;13.90;89.90;;;;;;5096577;28;20107;-69
2022/10/16 05:01:08;;;;;;;2.53;1.58;;;13.80;90.00;;;;;;5079524;28;20040;-69
2022/10/16 05:03:34;;;;;;;4.20;1.50;;;13.80;90.10;;;;;;5114281;28;20024;-69
2022/10/16 05:05:59;;;;;;;3.05;1.42;;;13.80;90.10;;;;;;5114218;28;20032;-69
2022/10/16 05:08:25;;;;;;;3.67;1.70;;;13.90;90.00;;;;;;5114211;28;20016;-69
2022/10/16 05:10:51;;;;;;;4.28;1.73;;;13.80;90.00;;;;;;5114134;28;20028;-69
2022/10/16 05:13:16;;;;;;;2.08;1.35;;;13.90;90.00;;;;;;5114097;28;20024;-69
2022/10/16 05:15:42;;;;;;;3.28;1.58;;;13.80;90.10;;;;;;5114015;28;20052;-68
2022/10/16 05:18:08;;;;;;;2.08;1.35;;;13.80;90.20;;;;;;5096162;28;20043;-69
2022/10/16 05:20:34;;;;;;;3.00;1.50;;;13.80;90.10;;;;;;5096161;28;20080;-69
2022/10/16 05:23:00;;;;;;;3.85;1.67;;;13.80;90.10;;;;;;5114094;28;20031;-69
2022/10/16 05:25:26;;;;;;;2.47;1.52;;;13.70;90.30;;;;;;5113897;28;20024;-69
2022/10/16 05:27:51;;;;;;;4.85;1.75;;;13.80;90.30;;;;;;5113872;28;20118;-69
2022/10/16 05:30:18;;;;;;;2.45;1.63;;;13.80;90.20;;;;;;5113778;28;20020;-69
2022/10/16 05:32:50;;;;;;;3.22;1.63;;;13.80;90.30;;;;;;5113789;28;20035;-69
2022/10/16 05:35:17;;;;;;;6.95;1.80;;;13.80;90.10;;;;;;5113783;28;20028;-69
2022/10/16 05:37:43;;;;;;;2.50;1.30;;;13.80;90.20;;;;;;5113727;28;20419;-69
2022/10/16 05:40:09;;;;;;;2.63;1.60;;;13.70;90.20;;;;;;5113699;28;20083;-69
2022/10/16 05:42:35;;;;;;;4.78;1.77;;;13.80;90.30;;;;;;5113691;28;20027;-69
2022/10/16 05:45:01;;;;;;;2.97;1.60;;;13.70;90.30;;;;;;5113498;28;20036;-69
2022/10/16 05:47:26;;;;;;;3.00;1.60;;;13.70;90.30;;;;;;5113622;28;20054;-69
2022/10/16 05:49:53;;;;;;;5.38;1.48;;;13.80;90.30;;;;;;5095881;28;20032;-69
2022/10/16 05:52:18;;;;;;;3.47;1.73;;;13.80;90.30;;;;;;5095893;28;20024;-69
2022/10/16 05:54:44;;;;;;;4.40;1.90;;;13.80;90.20;;;;;;5095739;28;20051;-69
2022/10/16 05:57:10;;;;;;;3.35;1.67;;;13.80;90.20;;;;;;5113528;28;20024;-69
2022/10/16 05:59:35;;;;;;;2.15;1.67;;;13.80;90.20;;;;;;5113499;28;20032;-68
2022/10/16 06:02:01;;;;;;;3.50;2.10;;;13.80;90.20;;;;;;5113275;28;20052;-69
2022/10/16 06:04:26;;;;;;;2.45;1.80;;;13.80;90.20;;;;;;5095515;28;20032;-68
2022/10/16 06:06:52;;;;;;;3.35;1.63;;;13.80;90.70;;;;;;5113440;28;20054;-68
2022/10/16 06:09:18;;;;;;;5.10;1.70;;;13.70;90.40;;;;;;5113396;28;20028;-68
2022/10/16 06:11:43;;;;;;;6.13;1.73;;;13.70;90.40;;;;;;5095598;28;20076;-69
2022/10/16 06:14:09;;;;;;;5.05;1.95;;;13.70;90.40;;;;;;5078681;28;20123;-68
2022/10/16 06:16:36;;;;;;;2.85;1.75;;;13.70;90.50;;;;;;5095422;28;20036;-68
2022/10/16 06:19:05;;;;;;;2.22;1.45;;;13.80;90.50;;;;;;5095400;28;20020;-69
2022/10/16 06:21:32;;;;;;;5.22;2.08;;;13.80;90.20;;;;;;5113289;28;20023;-69
2022/10/16 06:23:58;;;;;;;2.83;1.60;;;13.80;90.30;;;;;;5095402;28;20023;-69
2022/10/16 06:26:26;;;;;;;2.70;1.70;;;13.80;90.20;;;;;;5095320;28;20088;-69
2022/10/16 06:28:58;;;;;;;2.42;1.70;;;13.80;90.20;;;;;;5113129;28;20057;-69
2022/10/16 06:31:27;;;;;;;2.95;1.75;;;13.80;90.10;;;;;;5095329;28;20032;-69
2022/10/16 06:33:53;;;;;;;5.13;2.00;;;13.80;90.20;;;;;;5095334;28;20047;-68
2022/10/16 06:36:19;;;;;;;3.67;2.00;;;13.80;90.10;;;;;;5095133;28;20048;-68
2022/10/16 06:38:45;;;;;;;3.90;2.08;;;13.80;90.20;;;;;;5095420;28;20025;-68
2022/10/16 06:41:16;;;;;;;3.92;1.85;;;13.80;90.20;;;;;;5113100;28;20031;-68
2022/10/16 06:43:44;;;;;;;3.03;1.67;;;13.80;90.20;;;;;;5113271;28;20105;-68
2022/10/16 06:46:12;;;;;;;5.93;1.90;;;13.80;90.20;;;;;;5095203;28;20038;-68
2022/10/16 06:48:38;;;;;;;5.65;1.98;;;13.80;90.20;;;;;;5113067;28;20032;-68
2022/10/16 06:51:11;;;;;;;3.53;1.88;;;13.70;90.60;;;;;;5095281;28;20067;-69
2022/10/16 06:53:39;;;;;;;3.17;1.80;;;13.70;90.40;;;;;;5095195;28;20383;-70
2022/10/16 06:56:16;;;;;;;2.22;1.60;;;13.70;90.50;;;;;;5114518;28;20050;-69
2022/10/16 06:58:43;;;;;;;3.97;2.08;;;13.70;90.50;;;;;;5116744;28;20057;-69
2022/10/16 07:01:10;;;;;;;4.80;2.20;;;13.70;90.60;;;;;;5116421;28;20036;-68
2022/10/16 07:03:38;;;;;;;3.88;2.00;;;13.70;90.80;;;;;;5116463;28;20020;-68
2022/10/16 07:06:05;;;;;;;5.35;2.03;;;13.80;90.90;;;;;;5098811;28;20028;-68
2022/10/16 07:08:35;;;;;;;3.75;2.15;;;13.80;90.80;;;;;;5098552;28;20037;-69
2022/10/16 07:11:07;;;;;;;3.30;1.83;;;13.80;90.90;;;;;;5116474;28;20084;-69
2022/10/16 07:13:37;;;;;;;4.13;2.17;;;13.90;91.00;;;;;;5081929;28;20035;-69
2022/10/16 07:16:12;;;;;;;4.10;2.20;;;13.90;91.00;;;;;;5116254;28;20072;-69
2022/10/16 07:18:42;;;;;;;6.75;2.35;;;14.00;91.00;;;;;;5116306;28;20024;-69
2022/10/16 07:21:16;;;;;;;3.85;2.10;;;14.00;91.00;;;;;;5116503;28;20012;-69
2022/10/16 07:23:43;;;;;;;6.15;2.65;;;14.10;91.10;;;;;;5116217;28;20024;-68
2022/10/16 07:26:09;;;;;;;4.18;2.47;;;14.10;91.00;;;;;;5098346;28;20054;-69
2022/10/16 07:28:35;;;;;;;6.03;2.55;;;14.10;91.00;;;;;;5116072;28;20028;-69
2022/10/16 07:31:07;;;;;;;4.95;2.40;;;14.10;91.10;;;;;;5098211;28;20385;-68
2022/10/16 07:33:34;;;;;;;4.63;2.40;;;14.20;91.10;;;;;;5116053;28;20044;-69
2022/10/16 07:36:00;;;;;;;4.63;2.15;;;14.20;91.00;;;;;;5115898;28;20061;-69
2022/10/16 07:38:25;;;;;;;3.25;1.88;;;14.40;90.80;;;;;;5115941;28;20047;-68
2022/10/16 07:40:58;;;;;;;6.07;2.78;;;14.40;90.80;;;;;;5097948;28;20028;-68
2022/10/16 07:43:25;;;;;;;3.78;2.08;;;14.40;90.90;;;;;;5115794;28;20020;-68
2022/10/16 07:45:51;;;;;;;4.65;2.30;;;14.50;90.80;;;;;;5098068;28;20032;-69
2022/10/16 07:48:17;;;;;;;6.95;3.35;;;14.50;90.60;;;;;;5097823;28;20031;-69
2022/10/16 07:50:43;;;;;;;3.50;2.10;;;14.50;90.80;;;;;;5097850;28;20035;-69
2022/10/16 07:53:10;;;;;;;5.47;2.50;;;14.60;90.80;;;;;;5115669;28;20028;-68
2022/10/16 07:55:35;;;;;;;4.90;1.80;;;14.60;90.60;;;;;;5115528;28;20075;-69
2022/10/16 07:58:01;;;;;;;5.60;3.28;;;14.70;90.60;;;;;;5115557;28;20035;-69
2022/10/16 08:00:26;;;;;;;5.45;2.15;;;14.70;90.30;;;;;;5080956;28;20036;-69
2022/10/16 08:02:52;;;;;;;4.82;2.88;;;14.80;90.20;;;;;;5097247;28;20493;-69
2022/10/16 08:05:18;;;;;;;3.50;2.10;;;14.90;90.20;;;;;;5115371;28;20062;-69
2022/10/16 08:07:48;;;;;;;3.20;1.70;;;14.90;90.00;;;;;;5096289;28;20122;-69
2022/10/16 08:10:18;;;;;;;7.07;2.58;;;15.00;89.90;;;;;;5115465;28;20026;-69
2022/10/16 08:12:44;;;;;;;6.80;2.75;;;15.10;90.00;;;;;;5115248;28;20024;-69
2022/10/16 08:15:10;;;;;;;3.95;2.20;;;15.20;89.40;;;;;;5115125;28;20035;-69
2022/10/16 08:17:36;;;;;;;4.45;3.10;;;15.30;90.00;;;;;;5115122;28;20024;-69
2022/10/16 08:20:02;;;;;;;3.85;2.08;;;15.30;88.80;;;;;;5115082;28;20036;-69
2022/10/16 08:22:28;;;;;;;4.93;3.42;;;15.40;88.10;;;;;;5115004;28;20031;-68
2022/10/16 08:24:53;;;;;;;4.35;2.25;;;15.40;88.50;;;;;;5097166;28;20028;-69
2022/10/16 08:27:19;;;;;;;12.70;8.45;;;15.50;89.10;;;;;;5097115;28;20099;-69
2022/10/16 08:29:44;;;;;;;3.90;2.28;;;15.50;87.80;;;;;;5114834;28;20028;-69
2022/10/16 08:32:10;;;;;;;4.72;1.90;;;15.60;87.30;;;;;;5097002;28;20513;-69
2022/10/16 08:34:36;;;;;;;3.40;1.80;;;15.70;87.00;;;;;;5096854;28;20043;-68
2022/10/16 08:37:02;;;;;;;2.70;1.67;;;15.70;86.20;;;;;;5097048;28;20035;-68
2022/10/16 08:39:27;;;;;;;3.17;2.08;;;15.80;85.90;;;;;;5114739;28;20020;-69
2022/10/16 08:42:31;;;;;;;3.10;1.90;;;15.80;86.10;;;;;;5114670;28;20025;-69
2022/10/16 08:45:05;;;;;;;2.95;1.50;;;15.90;84.90;;;;;;5114608;28;20020;-68
2022/10/16 08:47:46;;;;;;;7.50;1.73;;;16.00;85.80;;;;;;5096577;28;20471;-68
2022/10/16 08:50:15;;;;;;;3.35;1.52;;;16.10;85.60;;;;;;5096577;28;20024;-68
2022/10/16 08:52:43;;;;;;;4.32;1.33;;;16.10;84.60;;;;;;5114490;28;20092;-69
2022/10/16 08:55:24;;;;;;;6.30;1.70;;;16.20;84.80;;;;;;5114326;28;20080;-69
2022/10/16 08:57:49;;;;;;;4.53;1.63;;;16.30;83.60;;;;;;5114353;28;20371;-69
2022/10/16 09:00:16;;;;;;;6.18;1.80;;;16.30;83.90;;;;;;5096432;28;20088;-69
2022/10/16 09:03:07;;;;;;;3.45;1.80;;;16.40;83.80;;;;;;5076292;28;20041;-69
2022/10/16 09:05:36;;;;;;;5.70;1.85;;;16.40;83.80;;;;;;5094022;28;20091;-69
2022/10/16 09:08:39;;;;;;;3.40;1.77;;;16.60;83.70;;;;;;5092945;28;20028;-70
2022/10/16 09:11:20;;;;;;;3.40;1.70;;;16.60;82.80;;;;;;5093807;28;20032;-70
2022/10/16 09:14:03;;;;;;;2.47;1.52;;;16.60;82.60;;;;;;5093838;28;20020;-69
2022/10/16 09:16:41;;;;;;;3.42;1.75;;;16.60;82.20;;;;;;5093861;28;20036;-69
2022/10/16 09:19:36;;;;;;;3.45;1.80;;;16.70;82.20;;;;;;5093351;28;20050;-69
2022/10/16 09:22:12;;;;;;;4.03;1.42;;;16.70;81.00;;;;;;5092676;28;20092;-69
2022/10/16 09:24:38;;;;;;;3.95;1.83;;;16.70;80.40;;;;;;5092646;28;20034;-69
2022/10/16 09:27:03;;;;;;;8.00;1.65;;;16.60;81.20;;;;;;5092667;28;20028;-69
2022/10/16 09:29:29;;;;;;;3.92;1.45;;;16.60;80.90;;;;;;5093512;28;20048;-69
2022/10/16 09:31:57;;;;;;;6.90;1.80;;;16.60;81.20;;;;;;5075829;28;20044;-69
2022/10/16 09:34:35;;;;;;;4.57;1.48;;;16.60;81.80;;;;;;5092507;28;20024;-69
2022/10/16 09:37:09;;;;;;;4.40;1.35;;;16.70;81.70;;;;;;5093457;28;20072;-70
2022/10/16 09:39:52;;;;;;;3.75;1.45;;;16.70;81.40;;;;;;5093640;28;20013;-69
2022/10/16 09:42:33;;;;;;;3.03;2.42;;;16.80;81.10;;;;;;5093429;28;20031;-69
2022/10/16 09:44:59;;;;;;;5.65;1.60;;;16.90;80.20;;;;;;5093414;28;20032;-69
2022/10/16 09:47:27;;;;;;;5.70;1.60;;;16.90;79.40;;;;;;5092428;28;20020;-69
2022/10/16 09:50:04;;;;;;;4.20;1.83;;;17.10;80.20;;;;;;5093357;28;20110;-69
2022/10/16 09:52:30;;;;;;;3.83;1.25;;;17.20;79.10;;;;;;5093380;28;20036;-69
2022/10/16 09:55:01;;;;;;;5.28;1.45;;;17.30;78.50;;;;;;5093224;28;20029;-69
2022/10/16 09:57:27;;;;;;;5.33;1.50;;;17.20;78.20;;;;;;5093313;28;20021;-69
2022/10/16 09:59:55;;;;;;;5.90;1.70;;;17.20;78.30;;;;;;5092302;28;20088;-69
2022/10/16 10:02:33;;;;;;;3.50;1.67;;;17.30;77.90;;;;;;5106140;28;20083;-69
2022/10/16 10:04:59;;;;;;;4.75;1.60;;;17.40;78.30;;;;;;5113522;28;20043;-69
2022/10/16 10:07:27;;;;;;;3.55;1.30;;;17.40;78.20;;;;;;5078851;28;20061;-69
2022/10/16 10:09:54;;;;;;;3.42;1.42;;;17.40;76.80;;;;;;5095680;28;20051;-69
2022/10/16 10:12:28;;;;;;;7.07;1.60;;;17.50;76.90;;;;;;5113411;28;20494;-69
2022/10/16 10:14:57;;;;;;;3.97;1.50;;;17.50;76.70;;;;;;5113465;28;20035;-69
2022/10/16 10:17:28;;;;;;;5.40;1.65;;;17.60;76.10;;;;;;5113310;28;20033;-69
2022/10/16 10:19:55;;;;;;;4.53;1.77;;;17.60;76.00;;;;;;5095422;28;20100;-69
2022/10/16 10:22:32;;;;;;;7.43;1.42;;;17.60;75.50;;;;;;5113229;28;20035;-69
2022/10/16 10:25:12;;;;;;;7.22;1.58;;;17.80;76.50;;;;;;5113280;28;20024;-69
2022/10/16 10:27:47;;;;;;;4.65;1.65;;;17.90;75.80;;;;;;5113426;28;20028;-69
2022/10/16 10:30:56;;;;;;;5.90;1.55;;;18.00;75.90;;;;;;5113458;28;20031;-69
2022/10/16 10:33:40;;;;;;;4.57;1.63;;;18.10;75.10;;;;;;5117371;28;20032;-69
2022/10/16 10:36:33;;;;;;;6.35;1.30;;;18.10;75.30;;;;;;5117070;28;20030;-69
2022/10/16 10:39:35;;;;;;;8.05;1.60;;;18.10;73.70;;;;;;5117316;28;20026;-69
2022/10/16 10:42:30;;;;;;;6.10;1.83;;;18.00;71.80;;;;;;5114783;28;20040;-69
2022/10/16 10:45:18;;;;;;;7.00;1.65;;;18.00;72.80;;;;;;5117045;28;20020;-69
2022/10/16 10:47:49;;;;;;;8.80;1.52;;;18.10;74.50;;;;;;5116951;28;20020;-69
2022/10/16 10:50:21;;;;;;;4.45;1.33;;;18.30;73.90;;;;;;5116863;28;20028;-69
2022/10/16 10:53:04;;;;;;;4.55;1.25;;;18.40;73.10;;;;;;5098909;28;20028;-69
2022/10/16 10:55:35;;;;;;;7.78;1.30;;;18.40;71.80;;;;;;5098907;28;20471;-69
2022/10/16 10:58:49;;;;;;;9.40;1.40;;;18.40;72.50;;;;;;5098777;28;20513;-69
2022/10/16 11:01:41;;;;;;;10.90;1.77;;;18.50;72.30;;;;;;5069793;28;20344;-68
2022/10/16 11:04:26;;;;;;;;;;;18.60;73.10;;;;;;5116547;28;20036;-69
2022/10/16 11:07:21;;;;;;;9.52;1.75;;;18.70;71.30;;;;;;5116633;28;19911;-69
2022/10/16 11:09:56;;;;;;;8.27;1.45;;;18.70;71.00;;;;;;5081501;28;20040;-69
2022/10/16 11:12:34;;;;;;;7.93;1.38;;;18.80;70.40;;;;;;5098628;28;20036;-69
2022/10/16 11:15:21;;;;;;;6.60;1.42;;;18.90;70.20;;;;;;5116531;28;20020;-69
2022/10/16 11:17:53;;;;;;;6.97;1.77;;;19.00;68.00;;;;;;5116339;28;20024;-69
2022/10/16 11:20:26;;;;;;;8.00;1.30;;;19.10;70.20;;;;;;5116367;28;20071;-68
2022/10/16 11:23:07;;;;;;;6.75;1.50;;;19.20;70.10;;;;;;5116294;28;20055;-69
2022/10/16 11:25:33;;;;;;;8.80;1.77;;;19.20;68.70;;;;;;5098324;28;20030;-69
2022/10/16 11:28:17;;;;;;;8.95;1.60;;;19.20;67.20;;;;;;5098160;28;20024;-69
2022/10/16 11:30:51;;;;;;;6.03;1.15;;;19.30;66.90;;;;;;5098163;28;20032;-69
2022/10/16 11:33:18;;;;;;;5.40;1.20;;;19.30;67.20;;;;;;5098192;28;20028;-69
2022/10/16 11:35:50;;;;;;;6.88;1.40;;;19.30;67.30;;;;;;5115960;28;20036;-69
2022/10/16 11:38:26;;;;;;;3.72;0.98;;;19.40;65.60;;;;;;5098188;28;20016;-69
2022/10/16 11:40:57;;;;;;;5.70;1.02;;;19.50;64.40;;;;;;5097870;28;20020;-69
2022/10/16 11:43:38;;;;;;;6.17;1.23;;;19.40;63.60;;;;;;5097933;28;20028;-69
2022/10/16 11:46:15;;;;;;;5.18;1.60;;;19.40;63.60;;;;;;5115909;28;20046;-69
2022/10/16 11:48:51;;;;;;;7.63;1.33;;;19.50;65.00;;;;;;5115812;28;20028;-69
2022/10/16 11:51:33;;;;;;;6.15;1.40;;;19.50;63.60;;;;;;5115767;28;20384;-69
2022/10/16 11:54:04;;;;;;;5.10;0.98;;;19.50;63.50;;;;;;5115715;28;20031;-69
2022/10/16 11:56:36;;;;;;;9.33;1.57;;;19.40;63.80;;;;;;5115601;28;20077;-68
2022/10/16 11:59:08;;;;;;;6.47;1.37;;;19.20;64.50;;;;;;5115625;28;20027;-69
2022/10/16 12:01:40;;;;;;;7.05;1.55;;;19.00;64.10;;;;;;5115378;28;20043;-69
2022/10/16 12:04:18;;;;;;;5.88;1.17;;;18.90;65.00;;;;;;5115534;28;20042;-69
2022/10/16 12:06:51;;;;;;;5.97;1.95;;;18.90;66.40;;;;;;5097562;28;20086;-69
2022/10/16 12:09:29;;;;;;;7.72;1.52;;;18.90;64.30;;;;;;5097471;28;20020;-69
2022/10/16 12:11:55;;;;;;;7.72;1.80;;;18.90;63.60;;;;;;5097319;28;20024;-66
2022/10/16 12:14:20;;;;;;;4.43;0.90;;;18.70;64.90;;;;;;5080642;28;20024;-66
2022/10/16 12:16:52;;;;;;;5.13;1.30;;;18.80;65.80;;;;;;5097168;28;20543;-66
2022/10/16 12:19:18;;;;;;;8.43;1.42;;;18.80;65.40;;;;;;5097214;28;20475;-66
2022/10/16 12:21:45;;;;;;;8.38;1.55;;;18.80;65.20;;;;;;5080555;28;20024;-66
2022/10/16 12:24:23;;;;;;;9.70;2.00;;;18.80;66.60;;;;;;5097171;28;20028;-66
2022/10/16 12:26:51;;;;;;;6.53;1.08;;;18.90;66.20;;;;;;5114965;28;20034;-66
2022/10/16 12:29:25;;;;;;;5.47;1.58;;;18.90;66.20;;;;;;5114991;28;20080;-66
2022/10/16 12:31:52;;;;;;;14.40;1.70;;;18.90;66.50;;;;;;5114952;28;20028;-66
2022/10/16 12:34:28;;;;;;;6.00;1.20;;;18.90;67.00;;;;;;5114863;28;20028;-66
2022/10/16 12:36:55;;;;;;;5.25;1.02;;;18.90;67.10;;;;;;5096888;28;20039;-66
2022/10/16 12:39:23;;;;;;;5.63;1.30;;;18.90;65.40;;;;;;5096793;28;20020;-67
2022/10/16 12:42:01;;;;;;;10.00;1.35;;;18.80;64.70;;;;;;5114743;28;20085;-66
2022/10/16 12:44:33;;;;;;;4.22;1.00;;;18.80;63.70;;;;;;5114717;28;20016;-66
2022/10/16 12:47:01;;;;;;;6.03;1.33;;;18.90;64.70;;;;;;5096791;28;20020;-66
2022/10/16 12:49:35;;;;;;;2.88;1.10;;;19.10;66.00;;;;;;5096567;28;20024;-69
2022/10/16 12:52:01;;;;;;;3.80;1.08;;;19.20;65.00;;;;;;5096739;28;20032;-69
2022/10/16 12:54:35;;;;;;;4.80;1.20;;;19.30;63.80;;;;;;5113759;28;20069;-69
2022/10/16 12:57:09;;;;;;;5.30;1.25;;;19.40;63.80;;;;;;5096554;28;20036;-69
2022/10/16 12:59:45;;;;;;;7.95;1.42;;;19.50;63.70;;;;;;5114404;28;20445;-68
2022/10/16 13:02:38;;;;;;;2.85;1.35;;;19.50;64.60;;;;;;5114288;28;20047;-68
2022/10/16 13:05:16;;;;;;;;;;;19.60;64.90;;;;;;5114899;28;20035;-69
2022/10/16 13:08:09;;;;;;;3.75;1.10;;;19.70;64.70;;;;;;5114357;28;19908;-69